CDT,Max TemperatureF,Mean TemperatureF,Min TemperatureF,Max Dew PointF,MeanDew PointF,Min DewpointF,Max Humidity, Mean Humidity, Min Humidity, Max Sea Level PressureIn, Mean Sea Level PressureIn, Min Sea Level PressureIn, Max VisibilityMiles, Mean VisibilityMiles, Min VisibilityMiles, Max Wind SpeedMPH, Mean Wind SpeedMPH, Max Gust SpeedMPH,PrecipitationIn, CloudCover, Events, WindDirDegrees
2013-6-1,80,66,52,42,39,37,59,41,23,30.06,29.94,29.71,10,10,10,31,16,38,0.00,0,,1
2013-6-2,86,67,47,43,42,38,71,47,22,30.11,29.97,29.80,10,10,10,22,10,29,0.00,0,,159
2013-6-3,102,83,64,57,48,40,50,33,16,29.80,29.66,29.48,10,10,9,33,18,44,0.09,1,Rain-Thunderstorm,171
2013-6-4,93,77,61,63,57,53,84,56,28,29.94,29.71,29.59,10,9,2,38,11,52,0.47,1,Rain-Thunderstorm,66
2013-6-5,71,65,58,61,57,53,90,79,68,30.10,29.96,29.77,10,10,10,29,14,47,0.25,7,Rain-Thunderstorm,19
2013-6-6,79,68,56,53,52,50,80,60,39,30.09,29.99,29.87,10,10,10,15,6,21,0.00,4,,25
2013-6-7,90,75,59,59,54,46,75,49,23,29.96,29.86,29.73,10,10,10,30,12,39,0.00,2,Thunderstorm,168
2013-6-8,90,74,58,60,55,50,93,63,32,29.83,29.68,29.56,10,10,10,35,17,41,0.00,0,Thunderstorm,200
2013-6-9,92,75,58,59,56,47,90,58,25,29.92,29.83,29.75,10,10,9,24,9,32,0.01,1,Rain,208
2013-6-10,106,88,69,58,51,41,66,39,11,29.79,29.71,29.62,10,10,10,29,19,38,0.00,0,,201
2013-6-11,107,91,75,51,48,45,43,28,13,29.76,29.67,29.58,10,10,10,33,21,40,0.00,0,,195
2013-6-12,103,88,73,59,49,40,41,27,12,29.84,29.79,29.67,10,10,10,26,12,35,0.00,0,,125
2013-6-13,99,83,66,62,56,50,73,47,20,29.92,29.84,29.77,10,10,10,23,13,32,0.00,0,,170
2013-6-14,98,84,69,61,54,39,68,41,14,29.83,29.79,29.70,10,10,10,32,19,44,0.00,1,,190
2013-6-15,95,81,67,64,60,51,87,58,28,29.99,29.81,29.68,10,10,10,30,15,38,0.00,2,,182
2013-6-16,92,77,62,68,61,55,84,61,38,30.12,29.94,29.74,10,9,2,39,14,55,1.30,5,Rain-Thunderstorm,100
2013-6-17,85,74,62,63,60,57,93,68,43,30.09,29.95,29.84,10,10,8,15,7,22,0.00,1,Thunderstorm,49
2013-6-18,89,77,65,63,59,55,87,60,32,29.99,29.90,29.79,10,10,10,25,8,32,0.19,0,,157
2013-6-19,85,75,65,64,62,57,87,68,48,30.06,29.89,29.71,10,9,2,30,17,37,0.46,4,Rain-Thunderstorm,146
2013-6-20,95,80,65,67,63,55,93,65,36,29.88,29.72,29.63,10,10,5,28,17,39,0.00,1,,176
2013-6-21,94,83,71,65,58,49,54,41,28,29.89,29.72,29.65,10,10,10,31,21,41,0.00,0,,190
2013-6-22,97,82,67,65,62,58,76,52,27,29.73,29.66,29.56,10,10,10,30,19,44,0.00,0,,177
2013-6-23,97,84,71,63,58,52,68,45,22,29.79,29.66,29.61,10,10,10,22,11,30,0.00,0,Thunderstorm,171
2013-6-24,97,86,75,64,60,54,60,42,24,29.73,29.64,29.55,10,10,10,29,19,39,T,0,,185
2013-6-25,105,90,75,63,43,23,60,33,6,29.79,29.62,29.57,10,10,10,25,13,35,0.00,0,,233
2013-6-26,102,81,60,64,58,51,84,52,20,29.79,29.73,29.63,10,10,10,22,9,26,0.00,0,,68
2013-6-27,109,90,71,65,58,44,73,43,12,29.97,29.85,29.75,10,10,8,22,7,30,0.03,0,Rain-Thunderstorm,151
2013-6-28,100,85,70,67,59,45,90,53,16,30.03,29.95,29.88,10,10,10,16,9,22,0.00,0,,61
2013-6-29,94,83,72,59,54,52,61,43,24,30.00,29.91,29.83,10,10,10,20,7,25,0.00,0,,75
2013-6-30,86,74,62,62,55,47,87,58,29,30.11,29.99,29.94,10,10,4,29,8,37,0.13,2,Rain,32